Terminal Aerodrome Forecast
Issued by NWS Wilmington, OH

Current Version | Previous Version | Graphics & Text | Print | Product List | Glossary On
Versions: 1 2 3 4 5 6 7 8 9 10 11 12 13 14 15 16 17
000
FTUS41 KILN 281740
TAFCMH
TAF
KCMH 281740Z 2818/2918 09005KT P6SM VCSH BKN040
     FM290000 00000KT P6SM FEW040 SCT250
     FM290600 00000KT 3SM BR SCT250
     FM290900 00000KT 2SM BR SCT250
     FM291300 22005KT P6SM FEW035 SCT250=

USA.gov is the U.S. government's official web portal to all federal, state and local government web resources and services.